createdAt,value
2023-12-21T00:00:14.358Z,88.21
2023-12-21T00:02:48.295Z,88.23
2023-12-21T00:05:15.524Z,87.22
2023-12-21T00:07:43.299Z,86.93
2023-12-21T00:10:11.194Z,86.49
2023-12-21T00:12:38.414Z,85.87
2023-12-21T00:15:06.239Z,86.09
2023-12-21T00:17:34.421Z,85.82
2023-12-21T00:20:01.763Z,85.52
2023-12-21T00:22:29.811Z,85.38
2023-12-21T00:24:57.211Z,85.29
2023-12-21T00:27:24.915Z,85.31
2023-12-21T00:29:52.312Z,84.47
2023-12-21T00:32:19.662Z,84.14
2023-12-21T00:35:02.838Z,84.67
2023-12-21T00:37:31.612Z,84.15
2023-12-21T00:39:59.418Z,84.34
2023-12-21T00:42:27.188Z,84.17
2023-12-21T00:44:55.186Z,84.17
2023-12-21T00:47:24.298Z,83.50
2023-12-21T00:49:52.108Z,83.56
2023-12-21T00:52:20.163Z,83.91
2023-12-21T00:54:47.856Z,83.66
2023-12-21T00:57:15.541Z,83.61
2023-12-21T00:59:43.498Z,83.68
2023-12-21T01:02:11.210Z,84.20
2023-12-21T01:04:39.374Z,84.34
2023-12-21T01:07:07.359Z,83.87
2023-12-21T01:09:34.534Z,83.30
2023-12-21T01:12:02.183Z,83.70
2023-12-21T01:14:30.791Z,83.32
2023-12-21T01:16:58.178Z,83.08
2023-12-21T01:19:25.907Z,82.12
2023-12-21T01:21:53.438Z,81.87
2023-12-21T01:24:21.334Z,81.28
2023-12-21T01:26:49.026Z,81.38
2023-12-21T01:29:17.146Z,81.18
2023-12-21T01:31:44.389Z,80.57
2023-12-21T01:34:11.708Z,81.01
2023-12-21T01:36:39.716Z,81.13
2023-12-21T01:39:07.920Z,80.64
2023-12-21T01:41:35.830Z,80.84
2023-12-21T01:44:03.767Z,81.05
2023-12-21T01:46:31.561Z,81.72
2023-12-21T01:48:59.379Z,82.25
2023-12-21T01:51:26.914Z,82.58
2023-12-21T01:53:54.043Z,82.90
2023-12-21T01:56:21.797Z,83.64
2023-12-21T01:58:49.903Z,82.90
2023-12-21T02:01:20.812Z,81.98
2023-12-21T02:03:48.884Z,81.89
2023-12-21T02:06:16.249Z,81.94
2023-12-21T02:08:44.002Z,81.47
2023-12-21T02:11:11.416Z,80.64
2023-12-21T02:13:39.161Z,80.55
2023-12-21T02:16:07.936Z,80.54
2023-12-21T02:18:35.972Z,80.65
2023-12-21T02:21:03.721Z,79.55
2023-12-21T02:23:31.482Z,80.13
2023-12-21T02:25:59.442Z,81.23
2023-12-21T02:28:27.190Z,81.41
2023-12-21T02:30:55.034Z,83.42
2023-12-21T02:33:28.272Z,84.67
2023-12-21T02:35:55.424Z,85.67
2023-12-21T02:38:24.846Z,86.65
2023-12-21T02:40:52.625Z,87.03
2023-12-21T02:43:19.838Z,87.33
2023-12-21T02:45:47.992Z,86.29
2023-12-21T02:48:15.752Z,86.22
2023-12-21T02:50:42.909Z,85.21
2023-12-21T02:53:10.677Z,85.34
2023-12-21T02:55:37.950Z,84.73
2023-12-21T02:58:05.169Z,84.35
2023-12-21T03:00:32.616Z,84.88
2023-12-21T03:02:59.857Z,84.63
2023-12-21T03:05:27.093Z,83.66
2023-12-21T03:07:55.212Z,83.67
2023-12-21T03:10:22.394Z,83.64
2023-12-21T03:12:49.874Z,82.71
2023-12-21T03:15:17.504Z,82.85
2023-12-21T03:17:45.504Z,83.14
2023-12-21T03:20:12.891Z,83.45
2023-12-21T03:22:41.289Z,83.47
2023-12-21T03:25:08.506Z,83.45
2023-12-21T03:27:36.002Z,83.77
2023-12-21T03:30:03.772Z,85.02
2023-12-21T03:32:31.524Z,83.87
2023-12-21T03:34:58.880Z,82.07
2023-12-21T03:37:28.575Z,81.89
2023-12-21T03:39:56.811Z,80.58
2023-12-21T03:42:24.115Z,80.85
2023-12-21T03:44:51.523Z,81.79
2023-12-21T03:47:18.818Z,81.15
2023-12-21T03:49:46.058Z,81.36
2023-12-21T03:52:13.553Z,82.00
2023-12-21T03:54:43.163Z,82.16
2023-12-21T03:57:10.340Z,82.15
2023-12-21T03:59:37.814Z,82.44
2023-12-21T04:02:05.518Z,83.79
2023-12-21T04:04:33.415Z,84.27
2023-12-21T04:07:00.708Z,86.06
2023-12-21T04:09:27.983Z,85.52
2023-12-21T04:11:55.431Z,85.26
2023-12-21T04:14:22.557Z,86.06
2023-12-21T04:16:52.228Z,84.40
2023-12-21T04:19:19.996Z,84.83
2023-12-21T04:21:47.813Z,82.87
2023-12-21T04:24:16.533Z,82.15
2023-12-21T04:26:43.927Z,82.14
2023-12-21T04:29:11.146Z,83.44
2023-12-21T04:31:43.628Z,84.05
2023-12-21T04:34:11.694Z,85.10
2023-12-21T04:36:39.085Z,84.64
2023-12-21T04:39:06.361Z,85.31
2023-12-21T04:41:34.380Z,85.35
2023-12-21T04:44:01.565Z,85.74
2023-12-21T04:46:28.757Z,86.67
2023-12-21T04:48:56.863Z,88.50
2023-12-21T04:51:24.047Z,85.46
2023-12-21T04:53:51.414Z,87.92
2023-12-21T04:56:19.047Z,84.51
2023-12-21T04:58:46.775Z,86.33
2023-12-21T05:01:14.040Z,85.44
2023-12-21T05:03:41.792Z,93.15
2023-12-21T05:06:09.281Z,92.13
2023-12-21T05:08:36.986Z,84.61
2023-12-21T05:11:04.498Z,85.05
2023-12-21T05:13:32.503Z,85.43
2023-12-21T05:15:59.882Z,84.21
2023-12-21T05:18:27.901Z,84.22
2023-12-21T05:20:55.224Z,84.71
2023-12-21T05:23:22.372Z,85.28
2023-12-21T05:25:49.870Z,85.83
2023-12-21T05:28:17.617Z,87.03
2023-12-21T05:30:44.853Z,87.34
2023-12-21T05:33:14.789Z,88.75
2023-12-21T05:35:42.011Z,87.55
2023-12-21T05:38:09.748Z,89.21
2023-12-21T05:40:37.362Z,90.41
2023-12-21T05:43:04.567Z,91.34
2023-12-21T05:45:31.841Z,91.45
2023-12-21T05:48:00.649Z,91.52
2023-12-21T05:50:27.951Z,92.79
2023-12-21T05:52:55.181Z,92.98
2023-12-21T05:55:23.245Z,91.03
2023-12-21T05:57:51.009Z,91.01
2023-12-21T06:00:18.421Z,90.60
2023-12-21T06:02:46.183Z,90.24
2023-12-21T06:05:14.119Z,91.64
2023-12-21T06:07:41.451Z,92.88
2023-12-21T06:10:09.708Z,93.41
2023-12-21T06:12:37.077Z,93.96
2023-12-21T06:15:05.819Z,96.79
2023-12-21T06:17:33.353Z,96.05
2023-12-21T06:20:01.233Z,94.04
2023-12-21T06:22:30.767Z,94.03
2023-12-21T06:24:58.799Z,94.99
2023-12-21T06:27:26.040Z,95.25
2023-12-21T06:29:53.238Z,95.32
2023-12-21T06:32:20.752Z,95.30
2023-12-21T06:34:48.434Z,95.33
2023-12-21T06:37:15.854Z,95.85
2023-12-21T06:39:43.364Z,96.50
2023-12-21T06:42:10.801Z,96.22
2023-12-21T06:44:38.528Z,95.84
2023-12-21T06:47:05.979Z,96.08
2023-12-21T06:49:33.398Z,94.72
2023-12-21T06:52:00.748Z,96.77
2023-12-21T06:54:28.781Z,94.61
2023-12-21T06:56:55.918Z,95.13
2023-12-21T06:59:23.119Z,93.91
2023-12-21T07:01:51.130Z,94.12
2023-12-21T07:04:18.336Z,94.78
2023-12-21T07:06:47.989Z,95.06
2023-12-21T07:09:16.798Z,94.72
2023-12-21T07:11:45.539Z,96.12
2023-12-21T07:14:14.210Z,94.58
2023-12-21T07:16:41.667Z,93.25
2023-12-21T07:19:09.087Z,92.42
2023-12-21T07:21:36.398Z,92.89
2023-12-21T07:24:04.000Z,91.58
2023-12-21T07:26:31.269Z,91.95
2023-12-21T07:28:58.993Z,91.69
2023-12-21T07:31:27.503Z,91.75
2023-12-21T07:33:54.765Z,94.26
2023-12-21T07:36:22.492Z,93.17
2023-12-21T07:38:49.980Z,95.24
2023-12-21T07:41:17.268Z,93.20
2023-12-21T07:43:46.011Z,100.00
2023-12-21T07:46:15.175Z,97.90
2023-12-21T07:48:45.204Z,92.06
2023-12-21T07:51:13.100Z,89.85
2023-12-21T07:53:40.503Z,88.03
2023-12-21T07:56:09.446Z,88.86
2023-12-21T07:58:47.917Z,90.22
2023-12-21T08:01:16.050Z,90.38
2023-12-21T08:03:43.700Z,90.59
2023-12-21T08:06:19.983Z,89.22
2023-12-21T08:08:56.748Z,97.63
2023-12-21T08:11:27.137Z,90.80
2023-12-21T08:13:56.625Z,87.42
2023-12-21T08:16:24.553Z,87.54
2023-12-21T08:18:51.868Z,92.89
2023-12-21T08:21:19.517Z,96.04
2023-12-21T08:23:46.668Z,90.88
2023-12-21T08:26:13.869Z,85.18
2023-12-21T08:28:43.185Z,83.25
2023-12-21T08:31:11.668Z,84.09
2023-12-21T08:33:39.748Z,84.82
2023-12-21T08:36:07.523Z,85.67
2023-12-21T08:38:35.271Z,85.08
2023-12-21T08:41:03.941Z,85.77
2023-12-21T08:43:33.728Z,87.95
2023-12-21T08:46:01.269Z,88.43
2023-12-21T08:48:29.188Z,88.43
2023-12-21T08:50:56.682Z,87.97
2023-12-21T08:53:24.691Z,89.48
2023-12-21T08:55:52.058Z,90.01
2023-12-21T08:58:20.384Z,89.39
2023-12-21T09:00:47.847Z,90.51
2023-12-21T09:03:15.146Z,89.52
2023-12-21T09:05:43.162Z,90.82
2023-12-21T09:08:10.903Z,90.83
2023-12-21T09:10:41.128Z,90.42
2023-12-21T09:13:14.108Z,90.48
2023-12-21T09:15:42.952Z,90.25
2023-12-21T09:18:12.061Z,89.00
2023-12-21T09:20:39.353Z,89.83
2023-12-21T09:23:06.566Z,89.63
2023-12-21T09:25:34.088Z,89.49
2023-12-21T09:28:03.992Z,89.68
2023-12-21T09:30:33.668Z,89.53
2023-12-21T09:33:01.784Z,91.78
2023-12-21T09:35:29.448Z,92.50
2023-12-21T09:37:57.241Z,89.76
2023-12-21T09:40:26.540Z,89.54
2023-12-21T09:43:04.547Z,89.44
2023-12-21T09:45:37.946Z,89.76
2023-12-21T09:48:06.587Z,92.63
2023-12-21T09:50:35.065Z,91.14
2023-12-21T09:53:02.774Z,89.54
2023-12-21T09:55:32.196Z,87.48
2023-12-21T09:58:00.041Z,87.70
2023-12-21T10:00:31.008Z,86.11
2023-12-21T10:02:58.754Z,88.26
2023-12-21T10:05:26.635Z,87.70
2023-12-21T10:07:53.793Z,86.55
2023-12-21T10:10:21.488Z,86.23
2023-12-21T10:12:49.138Z,85.96
2023-12-21T10:15:20.541Z,87.92
2023-12-21T10:17:49.048Z,89.43
2023-12-21T10:20:16.822Z,85.32
2023-12-21T10:22:44.492Z,84.83
2023-12-21T10:25:12.162Z,92.42
2023-12-21T10:27:41.751Z,86.39
2023-12-21T10:30:16.848Z,88.89
2023-12-21T10:32:46.035Z,88.81
2023-12-21T10:35:16.884Z,85.73
2023-12-21T10:37:44.636Z,86.16
2023-12-21T10:40:22.425Z,86.11
2023-12-21T10:42:50.887Z,87.06
2023-12-21T10:45:30.046Z,86.44
2023-12-21T10:48:06.159Z,85.33
2023-12-21T10:50:34.096Z,86.37
2023-12-21T10:53:02.238Z,87.00
2023-12-21T10:55:30.067Z,85.60
2023-12-21T10:57:57.904Z,84.55
2023-12-21T11:00:27.358Z,85.65
2023-12-21T11:03:11.132Z,84.88
2023-12-21T11:05:41.226Z,85.23
2023-12-21T11:08:09.003Z,85.41
2023-12-21T11:10:36.878Z,88.89
2023-12-21T11:13:04.917Z,84.38
2023-12-21T11:15:34.271Z,85.22
2023-12-21T11:18:04.419Z,85.06
2023-12-21T11:20:42.180Z,89.32
2023-12-21T11:23:14.822Z,83.71
2023-12-21T11:25:44.157Z,83.12
2023-12-21T11:28:12.231Z,85.12
2023-12-21T11:30:44.160Z,83.86
2023-12-21T11:33:13.150Z,83.61
2023-12-21T11:35:41.052Z,85.97
2023-12-21T11:38:08.798Z,92.30
2023-12-21T11:40:37.042Z,84.29
2023-12-21T11:43:08.016Z,89.30
2023-12-21T11:45:47.901Z,88.47
2023-12-21T11:48:18.196Z,84.88
2023-12-21T11:50:49.194Z,87.28
2023-12-21T11:53:33.109Z,82.79
2023-12-21T11:56:15.355Z,86.50
2023-12-21T11:58:44.968Z,86.88
2023-12-21T12:01:23.165Z,84.00
2023-12-21T12:03:51.412Z,88.59
2023-12-21T12:06:19.252Z,82.17
2023-12-21T12:08:49.315Z,82.53
2023-12-21T12:11:17.290Z,85.28
2023-12-21T12:13:45.042Z,81.71
2023-12-21T12:16:16.062Z,83.18
2023-12-21T12:18:44.346Z,82.63
2023-12-21T12:21:12.116Z,84.60
2023-12-21T12:23:41.438Z,83.26
2023-12-21T12:26:17.902Z,91.08
2023-12-21T12:28:45.878Z,81.62
2023-12-21T12:31:14.016Z,87.82
2023-12-21T12:33:42.572Z,87.32
2023-12-21T12:36:10.709Z,86.55
2023-12-21T12:38:38.673Z,85.96
2023-12-21T12:41:08.161Z,86.04
2023-12-21T12:43:36.357Z,82.71
2023-12-21T12:46:06.052Z,81.79
2023-12-21T12:48:33.996Z,82.61
2023-12-21T12:51:01.249Z,82.87
2023-12-21T12:53:30.939Z,87.29
2023-12-21T12:56:01.444Z,85.38
2023-12-21T12:58:44.350Z,82.15
2023-12-21T13:01:22.396Z,83.48
2023-12-21T13:03:51.982Z,82.13
2023-12-21T13:06:19.953Z,79.82
2023-12-21T13:08:47.925Z,84.06
2023-12-21T13:11:17.210Z,82.04
2023-12-21T13:13:48.439Z,81.70
2023-12-21T13:16:19.027Z,82.63
2023-12-21T13:18:46.853Z,82.72
2023-12-21T13:21:14.620Z,83.10
2023-12-21T13:23:43.403Z,79.88
2023-12-21T13:26:13.638Z,83.39
2023-12-21T13:28:44.857Z,80.30
2023-12-21T13:31:13.186Z,79.09
2023-12-21T13:33:41.132Z,78.12
2023-12-21T13:36:11.319Z,78.91
2023-12-21T13:38:41.973Z,81.58
2023-12-21T13:41:10.524Z,76.76
2023-12-21T13:43:38.552Z,79.74
2023-12-21T13:46:08.204Z,77.29
2023-12-21T13:48:36.643Z,76.97
2023-12-21T13:51:04.993Z,78.32
2023-12-21T13:53:35.456Z,79.07
2023-12-21T13:56:04.021Z,78.79
2023-12-21T13:58:35.490Z,79.42
2023-12-21T14:01:05.592Z,79.62
2023-12-21T14:03:33.758Z,81.87
2023-12-21T14:06:01.050Z,76.16
2023-12-21T14:08:28.747Z,75.98
2023-12-21T14:10:59.342Z,77.70
2023-12-21T14:13:26.706Z,76.74
2023-12-21T14:15:53.888Z,76.24
2023-12-21T14:18:21.306Z,78.09
2023-12-21T14:20:52.607Z,81.60
2023-12-21T14:23:22.974Z,78.78
2023-12-21T14:25:50.519Z,76.43
2023-12-21T14:28:17.917Z,76.91
2023-12-21T14:30:45.115Z,76.92
2023-12-21T14:33:13.454Z,77.95
2023-12-21T14:35:40.750Z,79.22
2023-12-21T14:38:08.087Z,79.23
2023-12-21T14:40:36.301Z,77.85
2023-12-21T14:43:04.295Z,78.64
2023-12-21T14:45:31.572Z,78.90
2023-12-21T14:47:59.045Z,78.82
2023-12-21T14:50:26.306Z,79.33
2023-12-21T14:52:54.381Z,80.41
2023-12-21T14:55:22.086Z,81.09
2023-12-21T14:57:50.673Z,81.32
2023-12-21T15:00:18.270Z,81.06
2023-12-21T15:02:45.878Z,81.43
2023-12-21T15:05:14.052Z,82.01
2023-12-21T15:07:41.494Z,83.25
2023-12-21T15:10:10.011Z,83.13
2023-12-21T15:12:38.683Z,83.74
2023-12-21T15:15:05.992Z,83.54
2023-12-21T15:17:33.850Z,84.23
2023-12-21T15:20:01.078Z,84.61
2023-12-21T15:22:29.008Z,84.38
2023-12-21T15:24:56.494Z,87.15
2023-12-21T15:27:26.867Z,86.56
2023-12-21T15:29:54.080Z,84.49
2023-12-21T15:32:25.394Z,84.04
2023-12-21T15:34:52.930Z,85.09
2023-12-21T15:37:20.243Z,86.13
2023-12-21T15:39:47.759Z,87.76
2023-12-21T15:42:14.937Z,90.02
2023-12-21T15:44:42.102Z,91.14
2023-12-21T15:47:09.639Z,91.85
2023-12-21T15:49:36.968Z,91.61
2023-12-21T15:52:08.677Z,91.75
2023-12-21T15:54:36.352Z,92.37
2023-12-21T15:57:03.623Z,91.30
2023-12-21T15:59:35.653Z,92.86
2023-12-21T16:02:03.849Z,92.83
2023-12-21T16:04:34.831Z,91.75
2023-12-21T16:07:03.892Z,91.79
2023-12-21T16:09:31.875Z,91.89
2023-12-21T16:11:59.263Z,91.85
2023-12-21T16:14:26.494Z,93.81
2023-12-21T16:16:54.136Z,96.14
2023-12-21T16:19:21.623Z,93.41
2023-12-21T16:21:49.732Z,94.85
2023-12-21T16:24:17.417Z,94.96
2023-12-21T16:26:44.712Z,95.60
2023-12-21T16:29:12.294Z,96.51
2023-12-21T16:31:40.036Z,97.92
2023-12-21T16:34:07.548Z,98.21
2023-12-21T16:36:34.877Z,98.78
2023-12-21T16:39:04.976Z,99.31
2023-12-21T16:41:32.135Z,99.12
2023-12-21T16:44:00.435Z,97.62
2023-12-21T16:46:31.079Z,97.35
2023-12-21T16:48:58.296Z,97.82
2023-12-21T16:51:27.646Z,98.65
2023-12-21T16:53:55.072Z,97.70
2023-12-21T16:56:22.953Z,97.96
2023-12-21T16:58:50.184Z,97.34
2023-12-21T17:01:19.245Z,98.37
2023-12-21T17:03:48.674Z,98.74
2023-12-21T17:06:16.829Z,96.86
2023-12-21T17:08:44.288Z,95.30
2023-12-21T17:11:11.513Z,96.71
2023-12-21T17:13:38.829Z,97.24
2023-12-21T17:16:08.421Z,98.05
2023-12-21T17:18:35.894Z,98.94
2023-12-21T17:21:03.196Z,97.60
2023-12-21T17:23:30.641Z,96.62
2023-12-21T17:25:59.406Z,98.21
2023-12-21T17:28:26.929Z,95.87
2023-12-21T17:30:54.584Z,95.44
2023-12-21T17:33:22.171Z,95.61
2023-12-21T17:35:54.105Z,96.00
2023-12-21T17:38:21.617Z,94.58
2023-12-21T17:40:48.879Z,94.53
2023-12-21T17:43:16.153Z,95.28
2023-12-21T17:45:44.282Z,94.50
2023-12-21T17:48:25.263Z,94.40
2023-12-21T17:50:53.115Z,94.61
2023-12-21T17:53:20.336Z,94.69
2023-12-21T17:55:47.515Z,95.11
2023-12-21T17:58:18.519Z,95.48
2023-12-21T18:00:46.490Z,96.77
2023-12-21T18:03:16.647Z,96.79
2023-12-21T18:05:45.452Z,95.60
2023-12-21T18:08:15.356Z,95.21
2023-12-21T18:10:42.852Z,96.10
2023-12-21T18:13:12.428Z,97.38
2023-12-21T18:15:40.265Z,97.95
2023-12-21T18:18:08.347Z,97.45
2023-12-21T18:20:35.552Z,98.40
2023-12-21T18:23:02.690Z,98.58
2023-12-21T18:25:30.196Z,97.89
2023-12-21T18:27:58.563Z,98.48
2023-12-21T18:30:25.735Z,99.54
2023-12-21T18:32:59.633Z,99.82
2023-12-21T18:35:27.360Z,100.00
2023-12-21T18:38:00.829Z,100.00
2023-12-21T18:40:29.142Z,100.00
2023-12-21T18:42:57.174Z,100.00
2023-12-21T18:45:24.975Z,100.00
2023-12-21T18:47:54.822Z,100.00
2023-12-21T18:50:22.909Z,100.00
2023-12-21T18:52:54.503Z,100.00
2023-12-21T18:55:22.645Z,100.00
2023-12-21T18:57:50.453Z,100.00
2023-12-21T19:00:20.064Z,100.00
2023-12-21T19:02:49.222Z,100.00
2023-12-21T19:05:17.040Z,100.00
2023-12-21T19:07:45.707Z,100.00
2023-12-21T19:10:13.844Z,100.00
2023-12-21T19:12:42.937Z,100.00
2023-12-21T19:15:10.636Z,100.00
2023-12-21T19:17:39.385Z,100.00
2023-12-21T19:20:07.536Z,100.00
2023-12-21T19:22:35.329Z,100.00
2023-12-21T19:25:03.728Z,100.00
2023-12-21T19:27:31.534Z,100.00
2023-12-21T19:29:59.233Z,100.00
2023-12-21T19:32:27.258Z,100.00
2023-12-21T19:34:55.247Z,100.00
2023-12-21T19:37:23.105Z,100.00
2023-12-21T19:39:51.194Z,100.00
2023-12-21T19:42:18.905Z,100.00
2023-12-21T19:44:47.584Z,100.00
2023-12-21T19:47:15.553Z,100.00
2023-12-21T19:49:43.281Z,100.00
2023-12-21T19:52:11.164Z,100.00
2023-12-21T19:54:39.593Z,100.00
2023-12-21T19:57:09.506Z,100.00
2023-12-21T19:59:38.564Z,100.00
2023-12-21T20:02:07.564Z,100.00
2023-12-21T20:04:37.867Z,100.00
2023-12-21T20:07:05.584Z,100.00
2023-12-21T20:09:34.358Z,100.00
2023-12-21T20:12:02.482Z,100.00
2023-12-21T20:14:30.171Z,100.00
2023-12-21T20:16:57.977Z,100.00
2023-12-21T20:19:27.915Z,100.00
2023-12-21T20:21:56.054Z,100.00
2023-12-21T20:24:23.970Z,100.00
2023-12-21T20:26:51.969Z,100.00
2023-12-21T20:29:19.714Z,100.00
2023-12-21T20:31:47.453Z,100.00
2023-12-21T20:34:15.518Z,100.00
2023-12-21T20:36:45.213Z,100.00
2023-12-21T20:39:15.248Z,100.00
2023-12-21T20:41:43.187Z,100.00
2023-12-21T20:44:10.838Z,100.00
2023-12-21T20:46:38.598Z,100.00
2023-12-21T20:49:08.133Z,100.00
2023-12-21T20:51:35.899Z,100.00
2023-12-21T20:54:04.160Z,100.00
2023-12-21T20:56:32.231Z,100.00
2023-12-21T20:58:59.978Z,100.00
2023-12-21T21:01:30.707Z,100.00
2023-12-21T21:03:58.459Z,100.00
2023-12-21T21:06:26.190Z,100.00
2023-12-21T21:08:53.902Z,100.00
2023-12-21T21:11:22.180Z,100.00
2023-12-21T21:13:53.241Z,100.00
2023-12-21T21:16:25.188Z,100.00
2023-12-21T21:18:53.119Z,100.00
2023-12-21T21:21:21.170Z,100.00
2023-12-21T21:23:50.079Z,100.00
2023-12-21T21:26:17.748Z,100.00
2023-12-21T21:28:45.310Z,100.00
2023-12-21T21:31:17.022Z,100.00
2023-12-21T21:33:45.560Z,100.00
2023-12-21T21:36:14.105Z,100.00
2023-12-21T21:38:42.931Z,100.00
2023-12-21T21:41:17.617Z,100.00
2023-12-21T21:43:45.673Z,100.00
2023-12-21T21:46:14.653Z,100.00
2023-12-21T21:48:42.848Z,100.00
2023-12-21T21:51:13.913Z,100.00
2023-12-21T21:53:44.134Z,100.00
2023-12-21T21:56:12.614Z,100.00
2023-12-21T21:58:40.599Z,100.00
2023-12-21T22:01:11.025Z,100.00
2023-12-21T22:03:39.305Z,100.00
2023-12-21T22:06:07.027Z,100.00
2023-12-21T22:08:34.727Z,100.00
2023-12-21T22:11:03.328Z,100.00
2023-12-21T22:13:32.201Z,100.00
2023-12-21T22:15:59.944Z,100.00
2023-12-21T22:18:28.120Z,100.00
2023-12-21T22:20:55.917Z,100.00
2023-12-21T22:23:23.647Z,100.00
2023-12-21T22:25:51.724Z,100.00
2023-12-21T22:28:19.149Z,100.00
2023-12-21T22:30:46.916Z,100.00
2023-12-21T22:33:16.161Z,100.00
2023-12-21T22:35:43.978Z,100.00
2023-12-21T22:38:11.850Z,100.00
2023-12-21T22:40:39.879Z,100.00
2023-12-21T22:43:07.106Z,100.00
2023-12-21T22:45:34.322Z,100.00
2023-12-21T22:48:02.415Z,100.00
2023-12-21T22:50:30.382Z,100.00
2023-12-21T22:52:58.453Z,100.00
2023-12-21T22:55:26.887Z,100.00
2023-12-21T22:57:54.975Z,100.00
2023-12-21T23:00:23.310Z,100.00
2023-12-21T23:02:50.928Z,100.00
2023-12-21T23:05:18.762Z,100.00
2023-12-21T23:07:47.140Z,100.00
2023-12-21T23:10:15.532Z,100.00
2023-12-21T23:12:47.189Z,100.00
2023-12-21T23:15:16.162Z,100.00
2023-12-21T23:17:44.192Z,100.00
2023-12-21T23:20:12.028Z,99.51
2023-12-21T23:22:40.090Z,100.00
2023-12-21T23:25:07.941Z,97.83
2023-12-21T23:27:35.719Z,99.63
2023-12-21T23:30:03.769Z,100.00
2023-12-21T23:32:34.017Z,99.73
2023-12-21T23:35:12.792Z,100.00
2023-12-21T23:37:45.999Z,100.00
2023-12-21T23:40:14.149Z,100.00
2023-12-21T23:42:43.178Z,100.00
2023-12-21T23:45:11.160Z,100.00
2023-12-21T23:47:39.450Z,100.00
2023-12-21T23:50:07.455Z,100.00
2023-12-21T23:52:35.563Z,100.00
2023-12-21T23:55:03.330Z,100.00
2023-12-21T23:57:31.104Z,100.00
2023-12-21T23:59:59.843Z,100.00
